sensor_id;sensor_type;location;lat;lon;timestamp;P1;durP1;ratioP1;P2;durP2;ratioP2
55603;SDS011;41468;48.838;9.330;2023-04-25T00:00:49;1.60;;;1.33;;
55603;SDS011;41468;48.838;9.330;2023-04-25T00:03:16;1.37;;;1.27;;
55603;SDS011;41468;48.838;9.330;2023-04-25T00:05:45;1.30;;;1.30;;
55603;SDS011;41468;48.838;9.330;2023-04-25T00:08:12;1.33;;;1.23;;
55603;SDS011;41468;48.838;9.330;2023-04-25T00:10:38;1.43;;;1.27;;
55603;SDS011;41468;48.838;9.330;2023-04-25T00:13:05;1.37;;;1.37;;
55603;SDS011;41468;48.838;9.330;2023-04-25T00:15:32;1.50;;;1.40;;
55603;SDS011;41468;48.838;9.330;2023-04-25T00:17:59;1.33;;;1.33;;
55603;SDS011;41468;48.838;9.330;2023-04-25T00:20:26;4.07;;;1.60;;
55603;SDS011;41468;48.838;9.330;2023-04-25T00:22:52;1.43;;;1.37;;
55603;SDS011;41468;48.838;9.330;2023-04-25T00:25:19;1.43;;;1.40;;
55603;SDS011;41468;48.838;9.330;2023-04-25T00:27:46;1.40;;;1.30;;
55603;SDS011;41468;48.838;9.330;2023-04-25T00:30:13;1.47;;;1.40;;
55603;SDS011;41468;48.838;9.330;2023-04-25T00:32:40;1.53;;;1.43;;
55603;SDS011;41468;48.838;9.330;2023-04-25T00:35:07;1.37;;;1.27;;
55603;SDS011;41468;48.838;9.330;2023-04-25T00:37:34;1.23;;;1.23;;
55603;SDS011;41468;48.838;9.330;2023-04-25T00:40:01;1.40;;;1.30;;
55603;SDS011;41468;48.838;9.330;2023-04-25T00:42:28;1.90;;;1.50;;
55603;SDS011;41468;48.838;9.330;2023-04-25T00:44:54;1.33;;;1.27;;
55603;SDS011;41468;48.838;9.330;2023-04-25T00:47:22;1.43;;;1.33;;
55603;SDS011;41468;48.838;9.330;2023-04-25T00:49:49;2.20;;;1.70;;
55603;SDS011;41468;48.838;9.330;2023-04-25T00:52:16;2.47;;;1.60;;
55603;SDS011;41468;48.838;9.330;2023-04-25T00:54:42;1.90;;;1.80;;
55603;SDS011;41468;48.838;9.330;2023-04-25T00:57:09;1.90;;;1.60;;
55603;SDS011;41468;48.838;9.330;2023-04-25T00:59:37;1.43;;;1.30;;
55603;SDS011;41468;48.838;9.330;2023-04-25T01:02:04;1.83;;;1.40;;
55603;SDS011;41468;48.838;9.330;2023-04-25T01:04:31;1.70;;;1.60;;
55603;SDS011;41468;48.838;9.330;2023-04-25T01:06:58;1.67;;;1.57;;
55603;SDS011;41468;48.838;9.330;2023-04-25T01:09:25;1.93;;;1.53;;
55603;SDS011;41468;48.838;9.330;2023-04-25T01:11:52;1.50;;;1.40;;
55603;SDS011;41468;48.838;9.330;2023-04-25T01:14:19;1.63;;;1.50;;
55603;SDS011;41468;48.838;9.330;2023-04-25T01:16:45;1.43;;;1.33;;
55603;SDS011;41468;48.838;9.330;2023-04-25T01:19:12;2.53;;;1.43;;
55603;SDS011;41468;48.838;9.330;2023-04-25T01:21:44;2.10;;;1.60;;
55603;SDS011;41468;48.838;9.330;2023-04-25T01:24:12;1.53;;;1.43;;
55603;SDS011;41468;48.838;9.330;2023-04-25T01:26:39;3.47;;;1.60;;
55603;SDS011;41468;48.838;9.330;2023-04-25T01:29:10;1.57;;;1.47;;
55603;SDS011;41468;48.838;9.330;2023-04-25T01:31:37;1.23;;;1.23;;
55603;SDS011;41468;48.838;9.330;2023-04-25T01:34:04;2.37;;;1.43;;
55603;SDS011;41468;48.838;9.330;2023-04-25T01:36:31;1.50;;;1.40;;
55603;SDS011;41468;48.838;9.330;2023-04-25T01:38:58;1.60;;;1.50;;
55603;SDS011;41468;48.838;9.330;2023-04-25T01:41:25;1.73;;;1.63;;
55603;SDS011;41468;48.838;9.330;2023-04-25T01:43:52;1.60;;;1.50;;
55603;SDS011;41468;48.838;9.330;2023-04-25T01:46:18;1.27;;;1.23;;
55603;SDS011;41468;48.838;9.330;2023-04-25T01:48:45;1.30;;;1.30;;
55603;SDS011;41468;48.838;9.330;2023-04-25T01:51:12;1.50;;;1.40;;
55603;SDS011;41468;48.838;9.330;2023-04-25T01:53:39;1.50;;;1.40;;
55603;SDS011;41468;48.838;9.330;2023-04-25T01:56:06;1.47;;;1.30;;
55603;SDS011;41468;48.838;9.330;2023-04-25T01:58:33;1.63;;;1.53;;
55603;SDS011;41468;48.838;9.330;2023-04-25T02:00:59;1.20;;;1.10;;
55603;SDS011;41468;48.838;9.330;2023-04-25T02:03:26;1.73;;;1.50;;
55603;SDS011;41468;48.838;9.330;2023-04-25T02:05:53;1.60;;;1.60;;
55603;SDS011;41468;48.838;9.330;2023-04-25T02:08:20;1.57;;;1.47;;
55603;SDS011;41468;48.838;9.330;2023-04-25T02:10:46;2.13;;;1.93;;
55603;SDS011;41468;48.838;9.330;2023-04-25T02:13:13;1.67;;;1.57;;
55603;SDS011;41468;48.838;9.330;2023-04-25T02:15:40;1.70;;;1.40;;
55603;SDS011;41468;48.838;9.330;2023-04-25T02:18:07;1.97;;;1.80;;
55603;SDS011;41468;48.838;9.330;2023-04-25T02:20:36;1.67;;;1.50;;
55603;SDS011;41468;48.838;9.330;2023-04-25T02:23:03;1.60;;;1.50;;
55603;SDS011;41468;48.838;9.330;2023-04-25T02:25:30;2.20;;;1.67;;
55603;SDS011;41468;48.838;9.330;2023-04-25T02:27:56;1.57;;;1.57;;
55603;SDS011;41468;48.838;9.330;2023-04-25T02:30:23;1.67;;;1.57;;
55603;SDS011;41468;48.838;9.330;2023-04-25T02:32:50;1.97;;;1.60;;
55603;SDS011;41468;48.838;9.330;2023-04-25T02:35:17;1.60;;;1.50;;
55603;SDS011;41468;48.838;9.330;2023-04-25T02:37:43;2.20;;;1.60;;
55603;SDS011;41468;48.838;9.330;2023-04-25T02:40:10;1.63;;;1.47;;
55603;SDS011;41468;48.838;9.330;2023-04-25T02:42:37;1.77;;;1.50;;
55603;SDS011;41468;48.838;9.330;2023-04-25T02:45:04;1.83;;;1.40;;
55603;SDS011;41468;48.838;9.330;2023-04-25T02:47:31;1.53;;;1.43;;
55603;SDS011;41468;48.838;9.330;2023-04-25T02:49:58;1.70;;;1.30;;
55603;SDS011;41468;48.838;9.330;2023-04-25T02:52:25;1.90;;;1.80;;
55603;SDS011;41468;48.838;9.330;2023-04-25T02:54:51;2.00;;;1.90;;
55603;SDS011;41468;48.838;9.330;2023-04-25T02:57:18;2.00;;;1.90;;
55603;SDS011;41468;48.838;9.330;2023-04-25T02:59:45;1.87;;;1.77;;
55603;SDS011;41468;48.838;9.330;2023-04-25T03:02:11;1.73;;;1.63;;
55603;SDS011;41468;48.838;9.330;2023-04-25T03:04:38;1.70;;;1.60;;
55603;SDS011;41468;48.838;9.330;2023-04-25T03:07:10;1.90;;;1.80;;
55603;SDS011;41468;48.838;9.330;2023-04-25T03:09:37;1.53;;;1.50;;
55603;SDS011;41468;48.838;9.330;2023-04-25T03:12:04;1.70;;;1.60;;
55603;SDS011;41468;48.838;9.330;2023-04-25T03:14:37;1.80;;;1.70;;
55603;SDS011;41468;48.838;9.330;2023-04-25T03:17:04;2.07;;;1.97;;
55603;SDS011;41468;48.838;9.330;2023-04-25T03:19:30;2.40;;;1.90;;
55603;SDS011;41468;48.838;9.330;2023-04-25T03:21:57;2.00;;;1.90;;
55603;SDS011;41468;48.838;9.330;2023-04-25T03:24:24;2.53;;;1.63;;
55603;SDS011;41468;48.838;9.330;2023-04-25T03:26:50;1.87;;;1.50;;
55603;SDS011;41468;48.838;9.330;2023-04-25T03:29:17;1.97;;;1.87;;
55603;SDS011;41468;48.838;9.330;2023-04-25T03:31:44;2.20;;;1.80;;
55603;SDS011;41468;48.838;9.330;2023-04-25T03:34:15;1.80;;;1.70;;
55603;SDS011;41468;48.838;9.330;2023-04-25T03:36:42;2.23;;;1.90;;
55603;SDS011;41468;48.838;9.330;2023-04-25T03:39:08;1.70;;;1.63;;
55603;SDS011;41468;48.838;9.330;2023-04-25T03:41:35;1.80;;;1.70;;
55603;SDS011;41468;48.838;9.330;2023-04-25T03:44:02;3.70;;;2.00;;
55603;SDS011;41468;48.838;9.330;2023-04-25T03:46:28;2.00;;;1.90;;
55603;SDS011;41468;48.838;9.330;2023-04-25T03:48:55;2.13;;;1.97;;
55603;SDS011;41468;48.838;9.330;2023-04-25T03:51:22;1.77;;;1.73;;
55603;SDS011;41468;48.838;9.330;2023-04-25T03:53:59;2.30;;;1.83;;
55603;SDS011;41468;48.838;9.330;2023-04-25T03:56:26;3.33;;;2.10;;
55603;SDS011;41468;48.838;9.330;2023-04-25T03:58:53;3.87;;;2.03;;
55603;SDS011;41468;48.838;9.330;2023-04-25T04:01:19;2.40;;;2.20;;
55603;SDS011;41468;48.838;9.330;2023-04-25T04:03:46;4.97;;;2.00;;
55603;SDS011;41468;48.838;9.330;2023-04-25T04:06:13;2.97;;;2.70;;
55603;SDS011;41468;48.838;9.330;2023-04-25T04:08:40;2.10;;;1.90;;
55603;SDS011;41468;48.838;9.330;2023-04-25T04:11:07;2.20;;;2.10;;
55603;SDS011;41468;48.838;9.330;2023-04-25T04:13:33;2.00;;;1.90;;
55603;SDS011;41468;48.838;9.330;2023-04-25T04:16:00;2.27;;;2.17;;
55603;SDS011;41468;48.838;9.330;2023-04-25T04:18:27;2.13;;;1.93;;
55603;SDS011;41468;48.838;9.330;2023-04-25T04:20:53;2.40;;;2.00;;
55603;SDS011;41468;48.838;9.330;2023-04-25T04:23:20;2.63;;;2.43;;
55603;SDS011;41468;48.838;9.330;2023-04-25T04:25:49;3.73;;;2.13;;
55603;SDS011;41468;48.838;9.330;2023-04-25T04:28:15;3.13;;;2.33;;
55603;SDS011;41468;48.838;9.330;2023-04-25T04:30:42;2.20;;;2.10;;
55603;SDS011;41468;48.838;9.330;2023-04-25T04:33:12;2.43;;;2.27;;
55603;SDS011;41468;48.838;9.330;2023-04-25T04:35:39;2.47;;;2.10;;
55603;SDS011;41468;48.838;9.330;2023-04-25T04:38:06;2.77;;;2.57;;
55603;SDS011;41468;48.838;9.330;2023-04-25T04:40:32;2.73;;;2.40;;
55603;SDS011;41468;48.838;9.330;2023-04-25T04:42:59;2.33;;;2.23;;
55603;SDS011;41468;48.838;9.330;2023-04-25T04:45:26;2.70;;;2.50;;
55603;SDS011;41468;48.838;9.330;2023-04-25T04:47:54;2.70;;;2.50;;
55603;SDS011;41468;48.838;9.330;2023-04-25T04:50:21;2.60;;;2.40;;
55603;SDS011;41468;48.838;9.330;2023-04-25T04:52:48;3.43;;;2.60;;
55603;SDS011;41468;48.838;9.330;2023-04-25T04:55:15;3.67;;;2.27;;
55603;SDS011;41468;48.838;9.330;2023-04-25T04:57:41;3.43;;;3.13;;
55603;SDS011;41468;48.838;9.330;2023-04-25T05:00:13;5.40;;;2.60;;
55603;SDS011;41468;48.838;9.330;2023-04-25T05:02:40;3.40;;;2.53;;
55603;SDS011;41468;48.838;9.330;2023-04-25T05:05:07;2.70;;;2.50;;
55603;SDS011;41468;48.838;9.330;2023-04-25T05:07:34;2.57;;;2.37;;
55603;SDS011;41468;48.838;9.330;2023-04-25T05:10:05;2.53;;;2.30;;
55603;SDS011;41468;48.838;9.330;2023-04-25T05:12:33;2.07;;;1.97;;
55603;SDS011;41468;48.838;9.330;2023-04-25T05:15:02;2.50;;;2.30;;
55603;SDS011;41468;48.838;9.330;2023-04-25T05:17:29;3.00;;;2.00;;
55603;SDS011;41468;48.838;9.330;2023-04-25T05:19:55;2.10;;;2.00;;
55603;SDS011;41468;48.838;9.330;2023-04-25T05:22:22;2.50;;;2.30;;
55603;SDS011;41468;48.838;9.330;2023-04-25T05:24:49;2.70;;;2.20;;
55603;SDS011;41468;48.838;9.330;2023-04-25T05:27:21;2.43;;;2.30;;
55603;SDS011;41468;48.838;9.330;2023-04-25T05:29:47;3.47;;;2.37;;
55603;SDS011;41468;48.838;9.330;2023-04-25T05:32:14;3.00;;;2.70;;
55603;SDS011;41468;48.838;9.330;2023-04-25T05:34:41;2.50;;;2.30;;
55603;SDS011;41468;48.838;9.330;2023-04-25T05:37:08;2.30;;;2.10;;
55603;SDS011;41468;48.838;9.330;2023-04-25T05:39:35;2.77;;;2.57;;
55603;SDS011;41468;48.838;9.330;2023-04-25T05:42:02;2.30;;;2.20;;
55603;SDS011;41468;48.838;9.330;2023-04-25T05:44:30;2.50;;;2.30;;
55603;SDS011;41468;48.838;9.330;2023-04-25T05:46:57;2.90;;;2.70;;
55603;SDS011;41468;48.838;9.330;2023-04-25T05:49:24;10.03;;;3.60;;
55603;SDS011;41468;48.838;9.330;2023-04-25T05:51:51;6.13;;;2.57;;
55603;SDS011;41468;48.838;9.330;2023-04-25T05:54:17;5.97;;;5.43;;
55603;SDS011;41468;48.838;9.330;2023-04-25T05:56:44;3.90;;;3.60;;
55603;SDS011;41468;48.838;9.330;2023-04-25T05:59:11;3.10;;;2.80;;
55603;SDS011;41468;48.838;9.330;2023-04-25T06:01:37;2.90;;;2.70;;
55603;SDS011;41468;48.838;9.330;2023-04-25T06:04:04;3.37;;;2.77;;
55603;SDS011;41468;48.838;9.330;2023-04-25T06:06:32;2.83;;;2.63;;
55603;SDS011;41468;48.838;9.330;2023-04-25T06:08:58;3.90;;;2.60;;
55603;SDS011;41468;48.838;9.330;2023-04-25T06:11:25;5.03;;;2.80;;
55603;SDS011;41468;48.838;9.330;2023-04-25T06:13:51;3.03;;;2.77;;
55603;SDS011;41468;48.838;9.330;2023-04-25T06:16:19;3.80;;;3.17;;
55603;SDS011;41468;48.838;9.330;2023-04-25T06:18:46;4.50;;;3.33;;
55603;SDS011;41468;48.838;9.330;2023-04-25T06:21:23;2.93;;;2.50;;
55603;SDS011;41468;48.838;9.330;2023-04-25T06:23:49;4.33;;;2.60;;
55603;SDS011;41468;48.838;9.330;2023-04-25T06:26:17;2.80;;;2.60;;
55603;SDS011;41468;48.838;9.330;2023-04-25T06:28:43;3.43;;;2.70;;
55603;SDS011;41468;48.838;9.330;2023-04-25T06:31:10;2.90;;;2.70;;
55603;SDS011;41468;48.838;9.330;2023-04-25T06:33:37;3.07;;;2.87;;
55603;SDS011;41468;48.838;9.330;2023-04-25T06:36:03;2.70;;;2.50;;
55603;SDS011;41468;48.838;9.330;2023-04-25T06:38:30;2.70;;;2.60;;
55603;SDS011;41468;48.838;9.330;2023-04-25T06:40:57;2.50;;;2.40;;
55603;SDS011;41468;48.838;9.330;2023-04-25T06:43:24;2.70;;;2.50;;
55603;SDS011;41468;48.838;9.330;2023-04-25T06:45:51;3.03;;;2.57;;
55603;SDS011;41468;48.838;9.330;2023-04-25T06:48:17;3.10;;;2.43;;
55603;SDS011;41468;48.838;9.330;2023-04-25T06:50:44;3.07;;;2.87;;
55603;SDS011;41468;48.838;9.330;2023-04-25T06:53:11;2.40;;;2.30;;
55603;SDS011;41468;48.838;9.330;2023-04-25T06:55:37;3.07;;;2.77;;
55603;SDS011;41468;48.838;9.330;2023-04-25T06:58:04;2.67;;;2.47;;
55603;SDS011;41468;48.838;9.330;2023-04-25T07:00:31;2.30;;;2.20;;
55603;SDS011;41468;48.838;9.330;2023-04-25T07:02:58;3.33;;;2.40;;
55603;SDS011;41468;48.838;9.330;2023-04-25T07:05:25;3.63;;;2.90;;
55603;SDS011;41468;48.838;9.330;2023-04-25T07:07:52;2.80;;;2.70;;
55603;SDS011;41468;48.838;9.330;2023-04-25T07:10:19;2.87;;;2.67;;
55603;SDS011;41468;48.838;9.330;2023-04-25T07:12:47;2.40;;;2.30;;
55603;SDS011;41468;48.838;9.330;2023-04-25T07:15:14;3.20;;;2.90;;
55603;SDS011;41468;48.838;9.330;2023-04-25T07:17:41;3.00;;;2.80;;
55603;SDS011;41468;48.838;9.330;2023-04-25T07:20:08;3.03;;;2.80;;
55603;SDS011;41468;48.838;9.330;2023-04-25T07:22:35;2.57;;;2.47;;
55603;SDS011;41468;48.838;9.330;2023-04-25T07:25:02;2.70;;;2.50;;
55603;SDS011;41468;48.838;9.330;2023-04-25T07:27:30;2.67;;;2.50;;
55603;SDS011;41468;48.838;9.330;2023-04-25T07:29:57;3.60;;;2.77;;
55603;SDS011;41468;48.838;9.330;2023-04-25T07:32:24;2.80;;;2.60;;
55603;SDS011;41468;48.838;9.330;2023-04-25T07:34:52;2.50;;;2.40;;
55603;SDS011;41468;48.838;9.330;2023-04-25T07:37:18;2.70;;;2.50;;
55603;SDS011;41468;48.838;9.330;2023-04-25T07:39:45;3.43;;;2.80;;
55603;SDS011;41468;48.838;9.330;2023-04-25T07:42:13;4.13;;;2.90;;
55603;SDS011;41468;48.838;9.330;2023-04-25T07:44:40;2.80;;;2.60;;
55603;SDS011;41468;48.838;9.330;2023-04-25T07:47:07;2.93;;;2.50;;
55603;SDS011;41468;48.838;9.330;2023-04-25T07:49:35;4.43;;;2.90;;
55603;SDS011;41468;48.838;9.330;2023-04-25T07:52:03;3.10;;;2.80;;
55603;SDS011;41468;48.838;9.330;2023-04-25T07:54:32;3.60;;;2.80;;
55603;SDS011;41468;48.838;9.330;2023-04-25T07:56:59;2.60;;;2.40;;
55603;SDS011;41468;48.838;9.330;2023-04-25T07:59:26;2.83;;;2.63;;
55603;SDS011;41468;48.838;9.330;2023-04-25T08:01:55;2.60;;;2.40;;
55603;SDS011;41468;48.838;9.330;2023-04-25T08:04:24;2.93;;;2.43;;
55603;SDS011;41468;48.838;9.330;2023-04-25T08:06:52;2.40;;;2.30;;
55603;SDS011;41468;48.838;9.330;2023-04-25T08:09:20;3.07;;;2.80;;
55603;SDS011;41468;48.838;9.330;2023-04-25T08:11:47;2.97;;;2.80;;
55603;SDS011;41468;48.838;9.330;2023-04-25T08:14:14;3.57;;;3.27;;
55603;SDS011;41468;48.838;9.330;2023-04-25T08:16:41;3.40;;;3.10;;
55603;SDS011;41468;48.838;9.330;2023-04-25T08:19:09;3.60;;;3.27;;
55603;SDS011;41468;48.838;9.330;2023-04-25T08:21:36;8.03;;;7.33;;
55603;SDS011;41468;48.838;9.330;2023-04-25T08:24:08;4.47;;;3.40;;
55603;SDS011;41468;48.838;9.330;2023-04-25T08:26:39;3.63;;;3.33;;
55603;SDS011;41468;48.838;9.330;2023-04-25T08:29:07;4.10;;;3.80;;
55603;SDS011;41468;48.838;9.330;2023-04-25T08:31:33;3.97;;;3.67;;
55603;SDS011;41468;48.838;9.330;2023-04-25T08:34:00;4.33;;;4.03;;
55603;SDS011;41468;48.838;9.330;2023-04-25T08:36:27;4.20;;;3.80;;
55603;SDS011;41468;48.838;9.330;2023-04-25T08:38:57;4.40;;;4.00;;
55603;SDS011;41468;48.838;9.330;2023-04-25T08:41:25;6.23;;;4.33;;
55603;SDS011;41468;48.838;9.330;2023-04-25T08:43:53;7.57;;;4.20;;
55603;SDS011;41468;48.838;9.330;2023-04-25T08:46:22;6.40;;;4.30;;
55603;SDS011;41468;48.838;9.330;2023-04-25T08:48:49;5.03;;;4.53;;
55603;SDS011;41468;48.838;9.330;2023-04-25T08:51:22;5.17;;;4.77;;
55603;SDS011;41468;48.838;9.330;2023-04-25T08:53:51;5.50;;;4.77;;
55603;SDS011;41468;48.838;9.330;2023-04-25T08:56:22;6.60;;;5.10;;
55603;SDS011;41468;48.838;9.330;2023-04-25T08:58:50;8.10;;;4.20;;
55603;SDS011;41468;48.838;9.330;2023-04-25T09:01:18;12.10;;;10.80;;
55603;SDS011;41468;48.838;9.330;2023-04-25T09:03:44;7.07;;;6.37;;
55603;SDS011;41468;48.838;9.330;2023-04-25T09:06:13;4.80;;;4.47;;
55603;SDS011;41468;48.838;9.330;2023-04-25T09:08:42;4.27;;;3.97;;
55603;SDS011;41468;48.838;9.330;2023-04-25T09:11:13;3.87;;;3.57;;
55603;SDS011;41468;48.838;9.330;2023-04-25T09:13:41;4.03;;;3.70;;
55603;SDS011;41468;48.838;9.330;2023-04-25T09:16:07;4.40;;;3.93;;
55603;SDS011;41468;48.838;9.330;2023-04-25T09:18:34;4.50;;;4.10;;
55603;SDS011;41468;48.838;9.330;2023-04-25T09:21:05;4.47;;;4.00;;
55603;SDS011;41468;48.838;9.330;2023-04-25T09:23:47;4.33;;;3.93;;
55603;SDS011;41468;48.838;9.330;2023-04-25T09:26:15;4.63;;;4.10;;
55603;SDS011;41468;48.838;9.330;2023-04-25T09:28:44;4.33;;;3.93;;
55603;SDS011;41468;48.838;9.330;2023-04-25T09:31:12;5.27;;;4.17;;
55603;SDS011;41468;48.838;9.330;2023-04-25T09:33:40;6.13;;;4.97;;
55603;SDS011;41468;48.838;9.330;2023-04-25T09:36:07;5.67;;;5.13;;
55603;SDS011;41468;48.838;9.330;2023-04-25T09:38:41;4.80;;;4.40;;
55603;SDS011;41468;48.838;9.330;2023-04-25T09:41:12;6.47;;;4.40;;
55603;SDS011;41468;48.838;9.330;2023-04-25T09:43:39;3.87;;;3.57;;
55603;SDS011;41468;48.838;9.330;2023-04-25T09:46:09;4.20;;;3.90;;
55603;SDS011;41468;48.838;9.330;2023-04-25T09:48:37;4.03;;;3.73;;
55603;SDS011;41468;48.838;9.330;2023-04-25T09:51:08;4.03;;;3.63;;
55603;SDS011;41468;48.838;9.330;2023-04-25T09:53:36;3.03;;;2.60;;
55603;SDS011;41468;48.838;9.330;2023-04-25T09:56:05;3.37;;;3.07;;
55603;SDS011;41468;48.838;9.330;2023-04-25T09:58:44;4.53;;;3.40;;
55603;SDS011;41468;48.838;9.330;2023-04-25T10:01:10;6.70;;;4.87;;
55603;SDS011;41468;48.838;9.330;2023-04-25T10:03:38;3.90;;;3.60;;
55603;SDS011;41468;48.838;9.330;2023-04-25T10:06:12;3.93;;;3.50;;
55603;SDS011;41468;48.838;9.330;2023-04-25T10:08:40;4.03;;;3.63;;
55603;SDS011;41468;48.838;9.330;2023-04-25T10:11:19;3.50;;;3.20;;
55603;SDS011;41468;48.838;9.330;2023-04-25T10:13:49;4.80;;;3.63;;
55603;SDS011;41468;48.838;9.330;2023-04-25T10:16:21;4.00;;;3.70;;
55603;SDS011;41468;48.838;9.330;2023-04-25T10:18:48;4.40;;;4.10;;
55603;SDS011;41468;48.838;9.330;2023-04-25T10:21:16;5.03;;;3.97;;
55603;SDS011;41468;48.838;9.330;2023-04-25T10:23:44;4.27;;;3.90;;
55603;SDS011;41468;48.838;9.330;2023-04-25T10:26:11;3.93;;;3.63;;
55603;SDS011;41468;48.838;9.330;2023-04-25T10:29:00;6.50;;;3.40;;
55603;SDS011;41468;48.838;9.330;2023-04-25T10:31:29;3.67;;;3.40;;
55603;SDS011;41468;48.838;9.330;2023-04-25T10:33:58;3.27;;;3.00;;
55603;SDS011;41468;48.838;9.330;2023-04-25T10:36:26;4.57;;;2.83;;
55603;SDS011;41468;48.838;9.330;2023-04-25T10:38:58;3.63;;;2.63;;
55603;SDS011;41468;48.838;9.330;2023-04-25T10:41:44;2.80;;;2.60;;
55603;SDS011;41468;48.838;9.330;2023-04-25T10:44:13;2.60;;;2.50;;
55603;SDS011;41468;48.838;9.330;2023-04-25T10:46:40;3.63;;;3.43;;
55603;SDS011;41468;48.838;9.330;2023-04-25T10:49:07;3.57;;;3.30;;
55603;SDS011;41468;48.838;9.330;2023-04-25T10:51:34;3.10;;;2.87;;
55603;SDS011;41468;48.838;9.330;2023-04-25T10:54:14;3.00;;;2.80;;
55603;SDS011;41468;48.838;9.330;2023-04-25T10:56:44;3.20;;;3.00;;
55603;SDS011;41468;48.838;9.330;2023-04-25T10:59:14;3.20;;;2.90;;
55603;SDS011;41468;48.838;9.330;2023-04-25T11:01:43;4.10;;;3.70;;
55603;SDS011;41468;48.838;9.330;2023-04-25T11:07:09;3.50;;;3.20;;
55603;SDS011;41468;48.838;9.330;2023-04-25T11:09:50;4.50;;;3.50;;
55603;SDS011;41468;48.838;9.330;2023-04-25T11:12:16;3.43;;;3.23;;
55603;SDS011;41468;48.838;9.330;2023-04-25T11:14:43;3.63;;;3.30;;
55603;SDS011;41468;48.838;9.330;2023-04-25T11:17:10;3.37;;;3.07;;
55603;SDS011;41468;48.838;9.330;2023-04-25T11:19:44;3.03;;;2.77;;
55603;SDS011;41468;48.838;9.330;2023-04-25T11:22:15;3.23;;;3.03;;
55603;SDS011;41468;48.838;9.330;2023-04-25T11:24:42;6.77;;;4.80;;
55603;SDS011;41468;48.838;9.330;2023-04-25T11:27:09;4.53;;;4.13;;
55603;SDS011;41468;48.838;9.330;2023-04-25T11:29:36;4.83;;;4.03;;
55603;SDS011;41468;48.838;9.330;2023-04-25T11:32:02;3.67;;;3.00;;
55603;SDS011;41468;48.838;9.330;2023-04-25T11:34:31;2.70;;;2.60;;
55603;SDS011;41468;48.838;9.330;2023-04-25T11:36:59;3.50;;;3.20;;
55603;SDS011;41468;48.838;9.330;2023-04-25T11:39:28;3.57;;;2.90;;
55603;SDS011;41468;48.838;9.330;2023-04-25T11:41:55;2.70;;;2.50;;
55603;SDS011;41468;48.838;9.330;2023-04-25T11:44:23;3.40;;;2.63;;
55603;SDS011;41468;48.838;9.330;2023-04-25T11:46:50;2.40;;;2.30;;
55603;SDS011;41468;48.838;9.330;2023-04-25T11:49:17;2.50;;;2.40;;
55603;SDS011;41468;48.838;9.330;2023-04-25T11:51:45;3.27;;;2.97;;
55603;SDS011;41468;48.838;9.330;2023-04-25T11:54:14;3.30;;;3.00;;
55603;SDS011;41468;48.838;9.330;2023-04-25T11:56:47;3.00;;;2.80;;
55603;SDS011;41468;48.838;9.330;2023-04-25T11:59:14;3.30;;;3.00;;
55603;SDS011;41468;48.838;9.330;2023-04-25T12:01:41;3.23;;;2.97;;
55603;SDS011;41468;48.838;9.330;2023-04-25T12:04:16;3.80;;;3.50;;
55603;SDS011;41468;48.838;9.330;2023-04-25T12:06:44;3.10;;;2.90;;
55603;SDS011;41468;48.838;9.330;2023-04-25T12:09:15;9.57;;;8.60;;
55603;SDS011;41468;48.838;9.330;2023-04-25T12:11:48;4.63;;;2.80;;
55603;SDS011;41468;48.838;9.330;2023-04-25T12:14:29;2.50;;;2.30;;
55603;SDS011;41468;48.838;9.330;2023-04-25T12:16:58;3.10;;;2.30;;
55603;SDS011;41468;48.838;9.330;2023-04-25T12:19:33;2.70;;;2.50;;
55603;SDS011;41468;48.838;9.330;2023-04-25T12:22:01;2.93;;;2.73;;
55603;SDS011;41468;48.838;9.330;2023-04-25T12:24:29;2.97;;;2.77;;
55603;SDS011;41468;48.838;9.330;2023-04-25T12:27:05;3.07;;;2.87;;
55603;SDS011;41468;48.838;9.330;2023-04-25T12:29:33;3.10;;;2.90;;
55603;SDS011;41468;48.838;9.330;2023-04-25T12:32:14;3.10;;;2.90;;
55603;SDS011;41468;48.838;9.330;2023-04-25T12:34:42;3.40;;;3.20;;
55603;SDS011;41468;48.838;9.330;2023-04-25T12:37:09;4.30;;;3.27;;
55603;SDS011;41468;48.838;9.330;2023-04-25T12:39:35;3.70;;;3.40;;
55603;SDS011;41468;48.838;9.330;2023-04-25T12:42:02;3.90;;;3.27;;
55603;SDS011;41468;48.838;9.330;2023-04-25T12:44:34;3.37;;;3.17;;
55603;SDS011;41468;48.838;9.330;2023-04-25T12:47:05;3.57;;;3.27;;
55603;SDS011;41468;48.838;9.330;2023-04-25T12:49:44;3.70;;;3.40;;
55603;SDS011;41468;48.838;9.330;2023-04-25T12:52:11;4.07;;;3.73;;
55603;SDS011;41468;48.838;9.330;2023-04-25T12:54:38;3.70;;;3.40;;
55603;SDS011;41468;48.838;9.330;2023-04-25T12:57:05;4.97;;;3.53;;
55603;SDS011;41468;48.838;9.330;2023-04-25T12:59:31;5.27;;;3.77;;
55603;SDS011;41468;48.838;9.330;2023-04-25T13:01:58;6.93;;;6.23;;
55603;SDS011;41468;48.838;9.330;2023-04-25T13:04:25;6.87;;;4.73;;
55603;SDS011;41468;48.838;9.330;2023-04-25T13:06:52;4.70;;;4.30;;
55603;SDS011;41468;48.838;9.330;2023-04-25T13:09:19;6.93;;;4.40;;
55603;SDS011;41468;48.838;9.330;2023-04-25T13:11:46;4.23;;;3.90;;
55603;SDS011;41468;48.838;9.330;2023-04-25T13:14:13;4.23;;;3.90;;
55603;SDS011;41468;48.838;9.330;2023-04-25T13:16:40;6.03;;;4.37;;
55603;SDS011;41468;48.838;9.330;2023-04-25T13:19:07;4.37;;;3.97;;
55603;SDS011;41468;48.838;9.330;2023-04-25T13:21:37;4.67;;;4.20;;
55603;SDS011;41468;48.838;9.330;2023-04-25T13:24:04;8.07;;;4.20;;
55603;SDS011;41468;48.838;9.330;2023-04-25T13:26:30;5.37;;;4.13;;
55603;SDS011;41468;48.838;9.330;2023-04-25T13:28:57;5.23;;;4.27;;
55603;SDS011;41468;48.838;9.330;2023-04-25T13:31:24;6.47;;;4.80;;
55603;SDS011;41468;48.838;9.330;2023-04-25T13:33:51;5.83;;;5.23;;
55603;SDS011;41468;48.838;9.330;2023-04-25T13:36:18;5.23;;;4.67;;
55603;SDS011;41468;48.838;9.330;2023-04-25T13:38:45;6.80;;;4.20;;
55603;SDS011;41468;48.838;9.330;2023-04-25T13:41:14;5.23;;;4.70;;
55603;SDS011;41468;48.838;9.330;2023-04-25T13:43:46;6.17;;;4.60;;
55603;SDS011;41468;48.838;9.330;2023-04-25T13:46:14;6.63;;;4.70;;
55603;SDS011;41468;48.838;9.330;2023-04-25T13:49:01;5.40;;;4.70;;
55603;SDS011;41468;48.838;9.330;2023-04-25T13:51:38;4.67;;;4.27;;
55603;SDS011;41468;48.838;9.330;2023-04-25T13:54:04;4.23;;;3.83;;
55603;SDS011;41468;48.838;9.330;2023-04-25T13:56:31;5.33;;;4.63;;
55603;SDS011;41468;48.838;9.330;2023-04-25T13:58:58;6.77;;;5.23;;
55603;SDS011;41468;48.838;9.330;2023-04-25T14:01:25;5.43;;;4.93;;
55603;SDS011;41468;48.838;9.330;2023-04-25T14:03:52;6.00;;;5.40;;
55603;SDS011;41468;48.838;9.330;2023-04-25T14:06:20;11.83;;;6.40;;
55603;SDS011;41468;48.838;9.330;2023-04-25T14:08:50;6.50;;;5.83;;
55603;SDS011;41468;48.838;9.330;2023-04-25T14:11:21;7.60;;;6.07;;
55603;SDS011;41468;48.838;9.330;2023-04-25T14:13:48;7.83;;;6.70;;
55603;SDS011;41468;48.838;9.330;2023-04-25T14:16:16;11.83;;;7.20;;
55603;SDS011;41468;48.838;9.330;2023-04-25T14:18:43;7.77;;;6.40;;
55603;SDS011;41468;48.838;9.330;2023-04-25T14:21:14;7.27;;;6.50;;
55603;SDS011;41468;48.838;9.330;2023-04-25T14:23:41;8.77;;;6.13;;
55603;SDS011;41468;48.838;9.330;2023-04-25T14:26:07;7.97;;;6.00;;
55603;SDS011;41468;48.838;9.330;2023-04-25T14:28:38;5.77;;;5.27;;
55603;SDS011;41468;48.838;9.330;2023-04-25T14:31:05;6.17;;;5.07;;
55603;SDS011;41468;48.838;9.330;2023-04-25T14:33:32;5.67;;;5.17;;
55603;SDS011;41468;48.838;9.330;2023-04-25T14:35:58;9.63;;;5.00;;
55603;SDS011;41468;48.838;9.330;2023-04-25T14:38:25;5.33;;;4.80;;
55603;SDS011;41468;48.838;9.330;2023-04-25T14:40:53;5.47;;;4.97;;
55603;SDS011;41468;48.838;9.330;2023-04-25T14:43:20;5.87;;;5.37;;
55603;SDS011;41468;48.838;9.330;2023-04-25T14:45:46;4.93;;;4.60;;
55603;SDS011;41468;48.838;9.330;2023-04-25T14:48:13;5.17;;;4.60;;
55603;SDS011;41468;48.838;9.330;2023-04-25T14:50:41;5.33;;;4.80;;
55603;SDS011;41468;48.838;9.330;2023-04-25T14:53:08;5.47;;;5.07;;
55603;SDS011;41468;48.838;9.330;2023-04-25T14:55:34;5.67;;;4.93;;